Station Historical Data
Daily Summary for August 05, 2012 Units:  English    Metric   Both
« Previous Day
Next Day »
Daily Weekly Monthly Yearly Custom
  High: Low: Average:
Temperature: 85.1 °F 74.3 °F 77.4 °F
Dew Point: 78.4 °F 71.6 °F 74.2 °F
Humidity: 92% 78% 90%
Wind Speed: 13.0mph 0.0mph 3mph
Wind Gust: 14.0mph - -
Wind- - SE
Pressure: 30.11 in 30.00 in -
Precipitation: 0.03 in    
Historical Graphs
 
 
Tabular Data for August 05, 2012
Time Temperature Dew Point Pressure Wind Wind Speed Wind Gust Humidity Rainfall Rate (Hourly) Conditions
00:00 74.9 °F 72.4 °F 30.01 in SSE 5.0 mph 7.0 mph 92% 0.00 in
00:01 74.9 °F 72.4 °F 30.01 in SE 4.0 mph 7.0 mph 92% 0.00 in
00:06 75.0 °F 72.5 °F 30.01 in SE 5.0 mph 8.0 mph 92% 0.00 in
00:11 75.1 °F 72.6 °F 30.01 in ESE 7.0 mph 10.0 mph 92% 0.00 in
00:16 75.2 °F 72.7 °F 30.02 in SE 6.0 mph 7.0 mph 92% 0.00 in
00:21 75.2 °F 72.7 °F 30.01 in SSE 7.0 mph 9.0 mph 92% 0.00 in
00:26 75.4 °F 72.9 °F 30.01 in SE 7.0 mph 8.0 mph 92% 0.00 in
00:32 75.5 °F 73.0 °F 30.01 in SSE 6.0 mph 8.0 mph 92% 0.00 in
00:37 75.6 °F 73.1 °F 30.01 in SSE 4.0 mph 8.0 mph 92% 0.00 in
00:42 75.6 °F 73.1 °F 30.01 in SE 6.0 mph 7.0 mph 92% 0.00 in
00:47 75.7 °F 73.2 °F 30.02 in SSE 4.0 mph 8.0 mph 92% 0.00 in
00:52 75.7 °F 73.2 °F 30.01 in ESE 7.0 mph 8.0 mph 92% 0.00 in
00:57 75.7 °F 73.2 °F 30.02 in SE 4.0 mph 8.0 mph 92% 0.00 in
01:02 75.7 °F 73.2 °F 30.02 in SE 7.0 mph 8.0 mph 92% 0.00 in
01:07 75.7 °F 73.2 °F 30.02 in SE 5.0 mph 8.0 mph 92% 0.00 in
01:12 75.7 °F 73.2 °F 30.02 in SE 4.0 mph 7.0 mph 92% 0.00 in
01:17 75.8 °F 73.3 °F 30.02 in SE 5.0 mph 9.0 mph 92% 0.00 in
01:22 75.8 °F 73.3 °F 30.02 in SE 4.0 mph 6.0 mph 92% 0.00 in
01:27 75.8 °F 73.3 °F 30.03 in SE 5.0 mph 6.0 mph 92% 0.00 in
01:32 75.8 °F 73.3 °F 30.03 in SE 3.0 mph 4.0 mph 92% 0.00 in
01:37 75.7 °F 73.2 °F 30.03 in SE 4.0 mph 5.0 mph 92% 0.00 in
01:42 75.7 °F 73.2 °F 30.03 in ESE 4.0 mph 5.0 mph 92% 0.00 in
01:47 75.7 °F 73.2 °F 30.03 in SE 1.0 mph 6.0 mph 92% 0.00 in
01:52 75.7 °F 73.2 °F 30.03 in SE 4.0 mph 5.0 mph 92% 0.00 in
01:57 75.8 °F 73.3 °F 30.03 in SE 4.0 mph 5.0 mph 92% 0.00 in
02:02 75.8 °F 73.3 °F 30.03 in SE 4.0 mph 6.0 mph 92% 0.00 in
02:07 75.8 °F 73.3 °F 30.04 in SE 3.0 mph 5.0 mph 92% 0.00 in
02:12 75.8 °F 73.3 °F 30.04 in SSE 3.0 mph 4.0 mph 92% 0.00 in
02:17 75.7 °F 73.2 °F 30.04 in SSE 2.0 mph 4.0 mph 92% 0.00 in
02:22 75.6 °F 73.1 °F 30.04 in SSE 1.0 mph 3.0 mph 92% 0.00 in
02:27 75.7 °F 73.2 °F 30.04 in SSE 2.0 mph 3.0 mph 92% 0.00 in
02:33 75.6 °F 73.1 °F 30.04 in SE 2.0 mph 2.0 mph 92% 0.00 in
02:38 75.6 °F 73.1 °F 30.05 in SE 1.0 mph 3.0 mph 92% 0.00 in
02:42 75.6 °F 73.1 °F 30.05 in SE 3.0 mph 3.0 mph 92% 0.00 in
02:47 75.6 °F 73.1 °F 30.05 in Calm   2.0 mph 92% 0.00 in
02:53 75.6 °F 73.1 °F 30.04 in SE 2.0 mph 3.0 mph 92% 0.00 in
02:58 75.5 °F 73.0 °F 30.04 in SE 4.0 mph 4.0 mph 92% 0.00 in
03:03 75.7 °F 73.2 °F 30.05 in SSE 4.0 mph 4.0 mph 92% 0.00 in
03:08 75.7 °F 73.2 °F 30.05 in SE 1.0 mph 2.0 mph 92% 0.00 in
03:13 75.6 °F 73.1 °F 30.05 in SSE 2.0 mph 2.0 mph 92% 0.00 in
03:18 75.6 °F 73.1 °F 30.05 in SSE 1.0 mph 1.0 mph 92% 0.00 in
03:23 75.5 °F 73.0 °F 30.05 in SSE 1.0 mph 1.0 mph 92% 0.00 in
03:28 75.4 °F 72.9 °F 30.05 in ESE 2.0 mph 2.0 mph 92% 0.00 in
03:33 75.5 °F 73.0 °F 30.05 in SE 3.0 mph 4.0 mph 92% 0.00 in
03:38 75.5 °F 73.0 °F 30.05 in SE 2.0 mph 4.0 mph 92% 0.00 in
03:43 75.5 °F 73.0 °F 30.05 in ESE 2.0 mph 4.0 mph 92% 0.00 in
03:48 75.4 °F 72.9 °F 30.05 in SE 4.0 mph 5.0 mph 92% 0.00 in
03:53 75.4 °F 72.9 °F 30.05 in SE 4.0 mph 6.0 mph 92% 0.00 in
03:58 75.4 °F 72.9 °F 30.05 in SE 3.0 mph 4.0 mph 92% 0.00 in
04:03 75.4 °F 72.9 °F 30.05 in SE 2.0 mph 4.0 mph 92% 0.00 in
04:08 75.4 °F 72.9 °F 30.05 in ESE 3.0 mph 4.0 mph 92% 0.00 in
04:13 75.3 °F 72.8 °F 30.05 in ESE 3.0 mph 5.0 mph 92% 0.00 in
04:18 75.3 °F 72.8 °F 30.05 in SE 3.0 mph 4.0 mph 92% 0.00 in
04:23 75.2 °F 72.7 °F 30.05 in SE 2.0 mph 4.0 mph 92% 0.00 in
04:28 75.2 °F 72.7 °F 30.05 in ESE 2.0 mph 4.0 mph 92% 0.00 in
04:33 75.1 °F 72.6 °F 30.05 in SE 2.0 mph 3.0 mph 92% 0.00 in
04:38 75.1 °F 72.6 °F 30.05 in SE 4.0 mph 5.0 mph 92% 0.00 in
04:43 75.0 °F 72.5 °F 30.05 in SE 2.0 mph 5.0 mph 92% 0.00 in
04:48 75.0 °F 72.5 °F 30.04 in SE 4.0 mph 5.0 mph 92% 0.00 in
04:53 74.9 °F 72.4 °F 30.04 in SE 3.0 mph 5.0 mph 92% 0.00 in
04:58 74.9 °F 72.4 °F 30.04 in SE 6.0 mph 6.0 mph 92% 0.00 in
05:03 75.0 °F 72.5 °F 30.05 in SE 3.0 mph 6.0 mph 92% 0.00 in
05:08 75.1 °F 72.6 °F 30.04 in SE 4.0 mph 6.0 mph 92% 0.00 in
05:13 75.1 °F 72.6 °F 30.05 in ESE 5.0 mph 6.0 mph 92% 0.00 in
05:18 75.1 °F 72.6 °F 30.05 in SE 3.0 mph 5.0 mph 92% 0.00 in
05:23 75.0 °F 72.5 °F 30.05 in SE 3.0 mph 4.0 mph 92% 0.00 in
05:28 75.1 °F 72.6 °F 30.05 in SE 3.0 mph 6.0 mph 92% 0.00 in
05:33 75.1 °F 72.6 °F 30.05 in SE 4.0 mph 6.0 mph 92% 0.00 in
05:38 75.1 °F 72.6 °F 30.05 in SE 4.0 mph 5.0 mph 92% 0.00 in
05:43 75.1 °F 72.6 °F 30.05 in SE 5.0 mph 6.0 mph 92% 0.00 in
05:48 75.0 °F 72.5 °F 30.04 in SSE 6.0 mph 7.0 mph 92% 0.00 in
05:54 74.9 °F 72.4 °F 30.04 in SSE 3.0 mph 7.0 mph 92% 0.00 in
05:59 74.8 °F 72.3 °F 30.04 in ESE 6.0 mph 7.0 mph 92% 0.00 in
06:04 74.8 °F 72.3 °F 30.04 in SE 4.0 mph 7.0 mph 92% 0.00 in
06:08 74.7 °F 72.2 °F 30.04 in SE 4.0 mph 7.0 mph 92% 0.00 in
06:14 74.8 °F 72.3 °F 30.04 in ESE 6.0 mph 8.0 mph 92% 0.00 in
06:19 74.8 °F 72.3 °F 30.05 in SE 5.0 mph 10.0 mph 92% 0.00 in
06:24 74.8 °F 72.3 °F 30.04 in SE 6.0 mph 7.0 mph 92% 0.00 in
06:29 74.8 °F 72.3 °F 30.05 in ESE 3.0 mph 8.0 mph 92% 0.00 in
06:34 74.8 °F 72.3 °F 30.05 in SE 7.0 mph 8.0 mph 92% 0.00 in
06:39 74.8 °F 72.3 °F 30.04 in SE 7.0 mph 9.0 mph 92% 0.00 in
06:44 74.7 °F 72.2 °F 30.04 in ESE 5.0 mph 9.0 mph 92% 0.00 in
06:49 74.6 °F 72.1 °F 30.05 in SE 5.0 mph 6.0 mph 92% 0.00 in
06:54 74.5 °F 72.0 °F 30.04 in ESE 5.0 mph 9.0 mph 92% 0.00 in
06:59 74.5 °F 72.0 °F 30.04 in SE 7.0 mph 7.0 mph 92% 0.00 in
07:04 74.4 °F 71.9 °F 30.04 in SE 4.0 mph 6.0 mph 92% 0.00 in
07:09 74.4 °F 71.9 °F 30.05 in SE 4.0 mph 7.0 mph 92% 0.00 in
07:14 74.4 °F 71.9 °F 30.05 in SSE 2.0 mph 5.0 mph 92% 0.00 in
07:19 74.4 °F 71.9 °F 30.05 in ESE 3.0 mph 4.0 mph 92% 0.00 in
07:24 74.3 °F 71.8 °F 30.06 in SSE 2.0 mph 4.0 mph 92% 0.00 in
07:29 74.3 °F 71.8 °F 30.06 in SE 2.0 mph 3.0 mph 92% 0.00 in
07:34 74.3 °F 71.8 °F 30.06 in SSE 2.0 mph 3.0 mph 92% 0.00 in
07:39 74.3 °F 71.8 °F 30.06 in SE 3.0 mph 3.0 mph 92% 0.00 in
07:44 74.4 °F 71.9 °F 30.06 in SSE 3.0 mph 4.0 mph 92% 0.00 in
07:49 74.5 °F 72.0 °F 30.06 in SE 2.0 mph 4.0 mph 92% 0.00 in
07:54 74.6 °F 72.1 °F 30.06 in SE 3.0 mph 4.0 mph 92% 0.00 in
07:59 74.9 °F 72.4 °F 30.06 in SE 4.0 mph 5.0 mph 92% 0.00 in
08:04 75.0 °F 72.5 °F 30.06 in SE 5.0 mph 5.0 mph 92% 0.00 in
08:09 75.3 °F 72.8 °F 30.06 in SE 3.0 mph 5.0 mph 92% 0.00 in
08:14 75.5 °F 73.0 °F 30.06 in SE 5.0 mph 6.0 mph 92% 0.00 in
08:19 75.8 °F 73.0 °F 30.06 in South 4.0 mph 9.0 mph 91% 0.00 in
08:24 76.0 °F 73.2 °F 30.06 in SE 5.0 mph 6.0 mph 91% 0.00 in
08:29 76.3 °F 73.5 °F 30.07 in SE 5.0 mph 6.0 mph 91% 0.00 in
08:34 76.5 °F 73.7 °F 30.07 in SSE 6.0 mph 9.0 mph 91% 0.00 in
08:39 76.7 °F 73.9 °F 30.07 in SSW 5.0 mph 7.0 mph 91% 0.00 in
08:44 77.0 °F 73.8 °F 30.07 in SE 3.0 mph 7.0 mph 90% 0.00 in
08:49 77.5 °F 74.3 °F 30.08 in SE 3.0 mph 4.0 mph 90% 0.00 in
08:54 77.6 °F 74.4 °F 30.08 in SSE 5.0 mph 6.0 mph 90% 0.00 in
08:59 77.5 °F 74.0 °F 30.08 in SSE 3.0 mph 7.0 mph 89% 0.00 in
09:04 77.5 °F 74.3 °F 30.08 in SE 5.0 mph 7.0 mph 90% 0.00 in
09:09 77.4 °F 74.2 °F 30.08 in SE 4.0 mph 5.0 mph 90% 0.00 in
09:14 77.5 °F 74.3 °F 30.08 in SSE 3.0 mph 7.0 mph 90% 0.00 in
09:19 77.5 °F 74.3 °F 30.08 in SE 5.0 mph 7.0 mph 90% 0.00 in
09:24 77.6 °F 74.4 °F 30.08 in SSE 6.0 mph 8.0 mph 90% 0.00 in
09:29 77.7 °F 74.5 °F 30.08 in SE 6.0 mph 8.0 mph 90% 0.00 in
09:34 77.8 °F 74.6 °F 30.09 in South 3.0 mph 6.0 mph 90% 0.00 in
09:40 77.9 °F 74.7 °F 30.08 in SSE 6.0 mph 8.0 mph 90% 0.00 in
09:44 78.0 °F 74.8 °F 30.09 in SE 4.0 mph 7.0 mph 90% 0.00 in
09:50 78.0 °F 74.5 °F 30.09 in South 3.0 mph 8.0 mph 89% 0.00 in
09:55 78.0 °F 74.8 °F 30.10 in South 2.0 mph 7.0 mph 90% 0.00 in
10:00 78.1 °F 74.9 °F 30.09 in SW 2.0 mph 4.0 mph 90% 0.00 in
10:05 78.0 °F 74.8 °F 30.10 in SSE 2.0 mph 4.0 mph 90% 0.00 in
10:10 78.1 °F 74.9 °F 30.10 in SSE 4.0 mph 4.0 mph 90% 0.00 in
10:15 78.0 °F 74.8 °F 30.09 in SSE 5.0 mph 8.0 mph 90% 0.00 in
10:20 77.9 °F 74.7 °F 30.09 in SSE 3.0 mph 7.0 mph 90% 0.00 in
10:25 78.0 °F 74.8 °F 30.10 in SE 3.0 mph 5.0 mph 90% 0.00 in
10:30 78.2 °F 75.0 °F 30.10 in SW 3.0 mph 4.0 mph 90% 0.00 in
10:35 78.5 °F 75.3 °F 30.10 in SW 2.0 mph 5.0 mph 90% 0.00 in
10:40 78.9 °F 75.4 °F 30.10 in South 4.0 mph 6.0 mph 89% 0.00 in
10:45 79.3 °F 75.8 °F 30.10 in SSW 4.0 mph 6.0 mph 89% 0.00 in
10:50 79.5 °F 75.6 °F 30.11 in SW 7.0 mph 7.0 mph 88% 0.00 in
10:55 79.7 °F 75.5 °F 30.11 in SW 8.0 mph 8.0 mph 87% 0.00 in
11:00 79.8 °F 75.6 °F 30.11 in SW 7.0 mph 7.0 mph 87% 0.00 in
11:05 79.9 °F 75.3 °F 30.11 in SSW 7.0 mph 9.0 mph 86% 0.00 in
11:10 80.1 °F 75.9 °F 30.11 in SE 4.0 mph 9.0 mph 87% 0.00 in
11:15 80.2 °F 75.6 °F 30.11 in SSE 5.0 mph 8.0 mph 86% 0.00 in
11:20 80.5 °F 75.9 °F 30.11 in SE 7.0 mph 9.0 mph 86% 0.00 in
11:25 80.6 °F 76.0 °F 30.11 in SE 8.0 mph 8.0 mph 86% 0.00 in
11:30 80.7 °F 75.4 °F 30.11 in SSE 7.0 mph 8.0 mph 84% 0.00 in
11:35 80.8 °F 76.2 °F 30.11 in South 7.0 mph 9.0 mph 86% 0.00 in
11:40 81.1 °F 76.5 °F 30.11 in South 1.0 mph 7.0 mph 86% 0.00 in
11:45 81.3 °F 76.0 °F 30.11 in South 7.0 mph 8.0 mph 84% 0.00 in
11:50 81.3 °F 76.0 °F 30.11 in SSE 4.0 mph 9.0 mph 84% 0.00 in
11:55 81.4 °F 76.1 °F 30.10 in SSW 4.0 mph 7.0 mph 84% 0.00 in
12:00 81.8 °F 76.1 °F 30.10 in SSE 4.0 mph 7.0 mph 83% 0.00 in
12:05 82.3 °F 76.6 °F 30.09 in SSW 3.0 mph 11.0 mph 83% 0.00 in
12:10 82.9 °F 77.2 °F 30.09 in SSE 8.0 mph 9.0 mph 83% 0.00 in
12:15 83.0 °F 76.9 °F 30.09 in South 6.0 mph 12.0 mph 82% 0.00 in
12:20 83.8 °F 78.4 °F 30.08 in SE 6.0 mph 11.0 mph 84% 0.00 in
12:25 83.9 °F 77.4 °F 30.08 in SE 13.0 mph 14.0 mph 81% 0.00 in
12:30 84.1 °F 78.0 °F 30.08 in SSE 10.0 mph 13.0 mph 82% 0.00 in
12:35 84.2 °F 77.4 °F 30.08 in South 6.0 mph 9.0 mph 80% 0.00 in
12:40 84.8 °F 77.6 °F 30.08 in SW 7.0 mph 10.0 mph 79% 0.00 in
12:45 85.1 °F 77.5 °F 30.08 in South 10.0 mph 14.0 mph 78% 0.00 in
12:50 84.7 °F 77.5 °F 30.08 in SSW 6.0 mph 9.0 mph 79% 0.00 in
12:55 84.8 °F 77.9 °F 30.08 in SW 4.0 mph 12.0 mph 80% 0.00 in
13:00 84.3 °F 77.1 °F 30.08 in SW 7.0 mph 12.0 mph 79% 0.00 in
13:05 83.7 °F 77.2 °F 30.08 in SW 6.0 mph 12.0 mph 81% 0.00 in
13:10 83.2 °F 76.8 °F 30.08 in West 7.0 mph 9.0 mph 81% 0.00 in
13:15 82.9 °F 77.2 °F 30.08 in SSW 6.0 mph 8.0 mph 83% 0.00 in
13:20 83.1 °F 77.4 °F 30.08 in SW 6.0 mph 7.0 mph 83% 0.00 in
13:25 83.3 °F 76.9 °F 30.08 in SW 8.0 mph 8.0 mph 81% 0.00 in
13:30 83.3 °F 76.9 °F 30.08 in WSW 3.0 mph 9.0 mph 81% 0.00 in
13:35 82.6 °F 76.9 °F 30.08 in NW 3.0 mph 8.0 mph 83% 0.00 in
13:40 81.7 °F 76.4 °F 30.07 in WNW 2.0 mph 5.0 mph 84% 0.00 in
13:46 81.0 °F 76.4 °F 30.07 in West 2.0 mph 3.0 mph 86% 0.00 in
13:51 80.6 °F 76.0 °F 30.08 in SSE 2.0 mph 2.0 mph 86% 0.00 in
13:55 79.8 °F 74.9 °F 30.08 in South 3.0 mph 9.0 mph 85% 0.00 in
14:01 78.3 °F 72.7 °F 30.07 in SSE 4.0 mph 7.0 mph 83% 0.00 in
14:06 77.2 °F 71.6 °F 30.07 in SE 6.0 mph 10.0 mph 83% 0.00 in
14:11 76.6 °F 72.1 °F 30.06 in East 3.0 mph 5.0 mph 86% 0.00 in
14:16 76.2 °F 72.1 °F 30.07 in SSW 3.0 mph 6.0 mph 87% 0.00 in
14:21 75.8 °F 72.0 °F 30.07 in WSW 2.0 mph 3.0 mph 88% 0.00 in
14:26 75.5 °F 72.0 °F 30.07 in WSW 1.0 mph 2.0 mph 89% 0.09 in
14:31 75.4 °F 72.3 °F 30.06 in SE 1.0 mph 2.0 mph 90% 0.09 in
14:37 75.5 °F 72.7 °F 30.06 in SSE 2.0 mph 4.0 mph 91% 0.05 in
14:42 75.4 °F 72.6 °F 30.06 in SSW 1.0 mph 3.0 mph 91% 0.00 in
14:47 75.5 °F 73.0 °F 30.07 in Calm   1.0 mph 92% 0.00 in
14:52 75.6 °F 73.1 °F 30.08 in Calm   2.0 mph 92% 0.00 in
14:57 75.6 °F 73.1 °F 30.07 in Calm   3.0 mph 92% 0.00 in
15:02 75.7 °F 73.2 °F 30.07 in Calm   2.0 mph 92% 0.00 in
15:07 75.7 °F 73.2 °F 30.07 in West 1.0 mph 1.0 mph 92% 0.00 in
15:12 75.8 °F 73.3 °F 30.07 in SW 1.0 mph 2.0 mph 92% 0.00 in
15:17 75.9 °F 73.4 °F 30.07 in Calm   2.0 mph 92% 0.00 in
15:22 76.0 °F 73.5 °F 30.06 in SSE 2.0 mph 3.0 mph 92% 0.00 in
15:27 76.0 °F 73.5 °F 30.06 in SSE 2.0 mph 3.0 mph 92% 0.00 in
15:32 75.9 °F 73.4 °F 30.06 in SSE 2.0 mph 4.0 mph 92% 0.00 in
15:37 75.9 °F 73.4 °F 30.06 in SSE 1.0 mph 2.0 mph 92% 0.00 in
15:42 75.9 °F 73.4 °F 30.06 in Calm   2.0 mph 92% 0.00 in
15:47 76.0 °F 73.5 °F 30.06 in Calm     92% 0.00 in
15:52 76.0 °F 73.5 °F 30.05 in SE 3.0 mph 3.0 mph 92% 0.00 in
15:57 75.9 °F 73.4 °F 30.05 in SE 1.0 mph 3.0 mph 92% 0.00 in
16:02 76.0 °F 73.5 °F 30.05 in SSE 3.0 mph 3.0 mph 92% 0.00 in
16:07 76.1 °F 73.6 °F 30.05 in SE 2.0 mph 3.0 mph 92% 0.00 in
16:12 76.2 °F 73.7 °F 30.05 in ESE 3.0 mph 4.0 mph 92% 0.00 in
16:17 76.4 °F 73.9 °F 30.05 in SE 2.0 mph 3.0 mph 92% 0.00 in
16:22 76.5 °F 74.0 °F 30.05 in SE 3.0 mph 3.0 mph 92% 0.00 in
16:27 76.7 °F 74.2 °F 30.05 in SSE 2.0 mph 2.0 mph 92% 0.00 in
16:32 77.0 °F 74.5 °F 30.05 in SE 1.0 mph 2.0 mph 92% 0.00 in
16:38 77.2 °F 74.7 °F 30.05 in SE 2.0 mph 4.0 mph 92% 0.00 in
16:43 77.5 °F 74.7 °F 30.05 in SE 3.0 mph 4.0 mph 91% 0.00 in
16:48 77.8 °F 75.0 °F 30.05 in ESE 2.0 mph 3.0 mph 91% 0.00 in
16:53 78.2 °F 75.0 °F 30.05 in SE 2.0 mph 4.0 mph 90% 0.00 in
16:58 78.8 °F 75.3 °F 30.04 in Calm   3.0 mph 89% 0.00 in
17:03 79.5 °F 75.6 °F 30.04 in Calm   3.0 mph 88% 0.00 in
17:08 80.2 °F 76.3 °F 30.04 in SSW 2.0 mph 2.0 mph 88% 0.00 in
17:13 80.8 °F 76.2 °F 30.04 in SE 2.0 mph 3.0 mph 86% 0.00 in
17:18 81.2 °F 76.3 °F 30.04 in Calm   2.0 mph 85% 0.00 in
17:23 81.2 °F 76.3 °F 30.04 in Calm   2.0 mph 85% 0.00 in
17:28 81.4 °F 77.2 °F 30.03 in Calm   2.0 mph 87% 0.00 in
17:33 81.2 °F 75.6 °F 30.03 in Calm   3.0 mph 83% 0.00 in
17:38 81.0 °F 75.7 °F 30.03 in Calm   3.0 mph 84% 0.00 in
17:43 81.0 °F 75.7 °F 30.03 in ESE 2.0 mph 2.0 mph 84% 0.00 in
17:48 80.8 °F 76.2 °F 30.03 in East 3.0 mph 4.0 mph 86% 0.00 in
17:53 80.5 °F 75.9 °F 30.02 in East 2.0 mph 5.0 mph 86% 0.00 in
17:58 80.3 °F 76.1 °F 30.02 in ENE 2.0 mph 4.0 mph 87% 0.00 in
18:03 80.0 °F 75.8 °F 30.02 in East 2.0 mph 3.0 mph 87% 0.00 in
18:08 79.9 °F 76.0 °F 30.02 in East 2.0 mph 3.0 mph 88% 0.00 in
18:13 80.0 °F 76.1 °F 30.02 in ESE 3.0 mph 3.0 mph 88% 0.00 in
18:18 80.1 °F 76.2 °F 30.02 in ESE 1.0 mph 2.0 mph 88% 0.00 in
18:23 80.1 °F 76.2 °F 30.02 in East 1.0 mph 3.0 mph 88% 0.00 in
18:28 80.2 °F 76.7 °F 30.02 in SE 1.0 mph 2.0 mph 89% 0.00 in
18:33 80.3 °F 76.4 °F 30.02 in SE 3.0 mph 4.0 mph 88% 0.00 in
18:38 80.3 °F 76.4 °F 30.02 in SE 3.0 mph 4.0 mph 88% 0.00 in
18:43 80.3 °F 76.4 °F 30.02 in SE 1.0 mph 4.0 mph 88% 0.00 in
18:48 80.3 °F 76.4 °F 30.02 in East 2.0 mph 4.0 mph 88% 0.00 in
18:53 80.2 °F 76.3 °F 30.02 in ESE 2.0 mph 3.0 mph 88% 0.00 in
18:58 80.1 °F 76.6 °F 30.02 in ESE 1.0 mph 3.0 mph 89% 0.00 in
19:03 80.1 °F 76.6 °F 30.01 in ESE 3.0 mph 3.0 mph 89% 0.00 in
19:08 80.1 °F 76.6 °F 30.01 in SE 1.0 mph 3.0 mph 89% 0.00 in
19:13 80.2 °F 76.7 °F 30.01 in Calm   1.0 mph 89% 0.00 in
19:18 80.3 °F 76.8 °F 30.01 in Calm   2.0 mph 89% 0.00 in
19:23 80.4 °F 76.9 °F 30.01 in Calm   1.0 mph 89% 0.00 in
19:28 80.5 °F 77.0 °F 30.01 in East 1.0 mph 1.0 mph 89% 0.00 in
19:33 80.3 °F 76.4 °F 30.01 in ESE 2.0 mph 2.0 mph 88% 0.00 in
19:38 80.1 °F 76.6 °F 30.01 in SE 1.0 mph 2.0 mph 89% 0.00 in
19:43 80.0 °F 76.8 °F 30.01 in ESE 1.0 mph 2.0 mph 90% 0.00 in
19:48 79.9 °F 76.7 °F 30.01 in ESE 1.0 mph 1.0 mph 90% 0.00 in
19:54 79.8 °F 76.9 °F 30.00 in ESE 2.0 mph 2.0 mph 91% 0.00 in
19:59 79.6 °F 76.8 °F 30.00 in ESE 2.0 mph 3.0 mph 91% 0.00 in
20:04 79.4 °F 76.6 °F 30.00 in SE 2.0 mph 4.0 mph 91% 0.00 in
20:09 79.2 °F 76.3 °F 30.00 in ESE 2.0 mph 2.0 mph 91% 0.00 in
20:14 79.0 °F 76.2 °F 30.01 in ESE 2.0 mph 2.0 mph 91% 0.00 in
20:19 78.8 °F 75.9 °F 30.01 in ESE 1.0 mph 2.0 mph 91% 0.00 in
20:24 78.5 °F 75.7 °F 30.01 in SE 1.0 mph 4.0 mph 91% 0.00 in
20:29 78.3 °F 75.8 °F 30.01 in ESE 1.0 mph 3.0 mph 92% 0.00 in
20:34 78.1 °F 75.6 °F 30.01 in ESE 1.0 mph 2.0 mph 92% 0.00 in
20:39 77.9 °F 75.4 °F 30.01 in ESE 1.0 mph 1.0 mph 92% 0.00 in
20:44 77.7 °F 75.2 °F 30.01 in Calm   1.0 mph 92% 0.00 in
20:49 77.6 °F 75.1 °F 30.01 in East 1.0 mph 2.0 mph 92% 0.00 in
20:54 77.4 °F 74.9 °F 30.01 in Calm   1.0 mph 92% 0.00 in
20:59 77.2 °F 74.7 °F 30.02 in ESE 2.0 mph 2.0 mph 92% 0.00 in
21:04 77.0 °F 74.5 °F 30.02 in Calm   1.0 mph 92% 0.00 in
21:09 76.9 °F 74.4 °F 30.02 in Calm   2.0 mph 92% 0.00 in
21:14 76.8 °F 74.3 °F 30.03 in Calm     92% 0.00 in
21:19 76.7 °F 74.2 °F 30.03 in NE 1.0 mph 1.0 mph 92% 0.00 in
21:24 76.6 °F 74.1 °F 30.03 in NE 1.0 mph 1.0 mph 92% 0.00 in
21:29 76.5 °F 74.0 °F 30.03 in Calm   1.0 mph 92% 0.00 in
21:34 76.5 °F 74.0 °F 30.03 in Calm     92% 0.00 in
21:39 76.4 °F 73.9 °F 30.03 in NE 1.0 mph 1.0 mph 92% 0.00 in
21:44 76.4 °F 73.9 °F 30.03 in NE 1.0 mph 1.0 mph 92% 0.00 in
21:49 76.2 °F 73.7 °F 30.04 in Calm   1.0 mph 92% 0.00 in
21:54 76.1 °F 73.6 °F 30.04 in Calm     92% 0.00 in
21:59 76.0 °F 73.5 °F 30.04 in Calm   1.0 mph 92% 0.00 in
22:04 75.9 °F 73.4 °F 30.05 in Calm   1.0 mph 92% 0.00 in
22:09 76.0 °F 73.5 °F 30.05 in ESE 1.0 mph 1.0 mph 92% 0.00 in
22:14 76.0 °F 73.5 °F 30.05 in SE 2.0 mph 2.0 mph 92% 0.00 in
22:19 75.9 °F 73.4 °F 30.05 in SE 2.0 mph 3.0 mph 92% 0.00 in
22:24 75.7 °F 73.2 °F 30.05 in East 2.0 mph 3.0 mph 92% 0.00 in
22:29 75.7 °F 73.2 °F 30.05 in ESE 1.0 mph 2.0 mph 92% 0.00 in
22:34 75.6 °F 73.1 °F 30.05 in ESE 1.0 mph 1.0 mph 92% 0.00 in
22:39 75.5 °F 73.0 °F 30.05 in East 1.0 mph 3.0 mph 92% 0.00 in
22:45 75.5 °F 73.0 °F 30.05 in Calm   2.0 mph 92% 0.00 in
22:50 75.5 °F 73.0 °F 30.06 in ESE 2.0 mph 2.0 mph 92% 0.00 in
22:55 75.4 °F 72.9 °F 30.06 in ESE 2.0 mph 3.0 mph 92% 0.00 in
23:00 75.5 °F 73.0 °F 30.06 in East 2.0 mph 3.0 mph 92% 0.00 in
23:05 75.5 °F 73.0 °F 30.06 in ESE 2.0 mph 2.0 mph 92% 0.00 in
23:10 75.5 °F 73.0 °F 30.06 in ESE 2.0 mph 3.0 mph 92% 0.00 in
23:15 75.4 °F 72.9 °F 30.06 in East 2.0 mph 2.0 mph 92% 0.00 in
23:20 75.4 °F 72.9 °F 30.06 in ESE 2.0 mph 3.0 mph 92% 0.00 in
23:25 75.5 °F 73.0 °F 30.05 in Calm   2.0 mph 92% 0.00 in
23:30 75.6 °F 73.1 °F 30.06 in Calm   1.0 mph 92% 0.00 in
23:35 75.6 °F 73.1 °F 30.05 in East 1.0 mph 2.0 mph 92% 0.00 in
23:40 75.5 °F 73.0 °F 30.05 in Calm   2.0 mph 92% 0.00 in
23:45 75.4 °F 72.9 °F 30.05 in Calm   1.0 mph 92% 0.00 in
23:50 75.3 °F 72.8 °F 30.05 in Calm   1.0 mph 92% 0.00 in
23:55 75.2 °F 72.7 °F 30.05 in SE 1.0 mph 2.0 mph 92% 0.00 in
Compliments of Weather Underground